Time;durP1;ratioP1;P1;durP2;ratioP2;P2;SDS_P1;SDS_P2;PMS_P1;PMS_P2;Temp;Humidity;BMP_temperature;BMP_pressure;BME280_temperature;BME280_humidity;BME280_pressure;Samples;Min_cycle;Max_cycle;Signal;HPM_P1;HPM_P2
2022/06/17 00:02:05;;;;;;;5.53;5.05;;;13.80;99.90;;;;;;5091929;28;20704;-67
2022/06/17 00:04:31;;;;;;;7.38;5.45;;;13.70;99.90;;;;;;5073521;28;20466;-67
2022/06/17 00:07:01;;;;;;;5.82;5.10;;;13.70;99.90;;;;;;5088898;28;20088;-67
2022/06/17 00:09:30;;;;;;;6.70;5.65;;;13.60;99.90;;;;;;5074163;28;20520;-67
2022/06/17 00:11:56;;;;;;;7.15;6.40;;;13.70;99.90;;;;;;5059000;28;20047;-67
2022/06/17 00:14:32;;;;;;;6.72;5.97;;;13.70;99.90;;;;;;5076961;28;20044;-67
2022/06/17 00:16:59;;;;;;;7.68;5.82;;;13.80;99.90;;;;;;5073617;28;20127;-67
2022/06/17 00:19:25;;;;;;;6.38;5.60;;;13.90;99.90;;;;;;5070503;28;20122;-67
2022/06/17 00:21:53;;;;;;;9.82;5.70;;;13.90;99.90;;;;;;5073766;28;20123;-67
2022/06/17 00:24:23;;;;;;;7.55;5.68;;;14.00;99.90;;;;;;5074196;28;20032;-68
2022/06/17 00:26:49;;;;;;;6.85;6.30;;;14.00;99.90;;;;;;5088273;28;20117;-67
2022/06/17 00:29:18;;;;;;;7.45;6.85;;;14.00;99.90;;;;;;5089276;28;20663;-67
2022/06/17 00:31:43;;;;;;;7.45;6.25;;;14.00;99.90;;;;;;5071760;28;20046;-67
2022/06/17 00:34:10;;;;;;;8.75;5.90;;;14.00;99.90;;;;;;5088909;28;20052;-67
2022/06/17 00:36:36;;;;;;;9.00;5.43;;;14.00;99.90;;;;;;5094402;28;20043;-67
2022/06/17 00:39:09;;;;;;;6.60;5.57;;;13.90;99.90;;;;;;5092575;28;20126;-67
2022/06/17 00:41:37;;;;;;;7.00;5.95;;;13.90;99.90;;;;;;5107663;27;20071;-67
2022/06/17 00:44:33;;;;;;;7.55;6.53;;;13.90;99.90;;;;;;5078166;28;20043;-67
2022/06/17 00:47:12;;;;;;;7.80;7.00;;;13.90;99.90;;;;;;5058510;28;20481;-67
2022/06/17 00:49:59;;;;;;;8.13;6.68;;;13.90;99.90;;;;;;5093203;28;20081;-67
2022/06/17 00:52:40;;;;;;;7.28;6.57;;;13.90;99.90;;;;;;5070657;28;20036;-67
2022/06/17 00:55:27;;;;;;;8.38;7.57;;;14.00;99.90;;;;;;5107979;27;20048;-67
2022/06/17 00:57:53;;;;;;;10.43;7.78;;;14.00;99.90;;;;;;5109025;27;20048;-67
2022/06/17 01:00:27;;;;;;;9.82;8.15;;;14.00;99.90;;;;;;5076482;28;20026;-67
2022/06/17 01:02:59;;;;;;;8.77;7.97;;;13.90;99.90;;;;;;5093360;28;20374;-67
2022/06/17 01:05:47;;;;;;;8.95;6.97;;;13.90;99.90;;;;;;5107820;27;20032;-67
2022/06/17 01:11:25;;;;;;;9.80;7.38;;;13.90;99.90;;;;;;5103779;27;20051;-67
2022/06/17 01:13:52;;;;;;;8.38;7.20;;;13.90;99.90;;;;;;5092748;28;20537;-67
2022/06/17 01:16:24;;;;;;;9.70;7.50;;;13.80;99.90;;;;;;5092690;28;20044;-67
2022/06/17 01:18:53;;;;;;;10.85;6.72;;;13.90;99.90;;;;;;5093103;28;20040;-67
2022/06/17 01:21:28;;;;;;;8.65;7.70;;;13.90;99.90;;;;;;5078105;28;20043;-67
2022/06/17 01:23:54;;;;;;;;;;;13.90;99.90;;;;;;5077736;28;20040;-67
2022/06/17 01:26:20;;;;;;;9.60;7.13;;;13.90;99.90;;;;;;5093368;28;20259;-67
2022/06/17 01:28:45;;;;;;;10.13;7.38;;;13.90;99.90;;;;;;5073928;28;20078;-67
2022/06/17 01:31:12;;;;;;;10.18;7.88;;;13.90;99.90;;;;;;5078712;28;20439;-67
2022/06/17 01:33:41;;;;;;;7.45;6.75;;;14.00;99.90;;;;;;5089178;28;20039;-67
2022/06/17 01:36:18;;;;;;;9.23;7.20;;;13.90;99.90;;;;;;5068151;28;20122;-67
2022/06/17 01:38:49;;;;;;;9.05;6.63;;;13.90;99.90;;;;;;5078131;28;20046;-67
2022/06/17 01:41:17;;;;;;;8.77;6.88;;;13.90;99.90;;;;;;5096876;28;20031;-67
2022/06/17 01:44:06;;;;;;;9.45;6.82;;;13.80;99.90;;;;;;5094250;28;20127;-68
2022/06/17 01:46:41;;;;;;;7.38;6.68;;;13.90;99.90;;;;;;5093104;28;20401;-67
2022/06/17 01:49:18;;;;;;;8.73;7.00;;;13.80;99.90;;;;;;5092104;28;20088;-67
2022/06/17 01:51:52;;;;;;;7.65;6.85;;;13.80;99.90;;;;;;5106663;27;20036;-67
2022/06/17 01:54:24;;;;;;;8.77;6.85;;;13.80;99.90;;;;;;5077153;28;20047;-67
2022/06/17 01:56:53;;;;;;;7.50;6.75;;;13.90;99.90;;;;;;5089921;28;20105;-67
2022/06/17 01:59:34;;;;;;;8.82;7.32;;;13.80;99.90;;;;;;5076876;28;20119;-67
2022/06/17 02:02:03;;;;;;;7.35;6.65;;;13.80;99.90;;;;;;5076313;28;20048;-67
2022/06/17 02:04:33;;;;;;;8.93;7.55;;;13.80;99.90;;;;;;5075598;28;20114;-67
2022/06/17 02:07:03;;;;;;;8.02;7.20;;;13.70;99.90;;;;;;5098741;28;20036;-68
2022/06/17 02:09:28;;;;;;;8.55;7.18;;;13.70;99.90;;;;;;5095182;28;20044;-67
2022/06/17 02:11:55;;;;;;;8.23;7.25;;;13.70;99.90;;;;;;5075033;28;20109;-67
2022/06/17 02:14:22;;;;;;;7.90;7.07;;;13.70;99.90;;;;;;5073533;28;20051;-67
2022/06/17 02:16:54;;;;;;;7.07;6.38;;;13.70;99.90;;;;;;5104743;27;20054;-67
2022/06/17 02:19:24;;;;;;;8.38;7.50;;;13.70;99.90;;;;;;5093324;28;20516;-67
2022/06/17 02:22:23;;;;;;;8.85;8.05;;;13.70;99.90;;;;;;5075948;28;20057;-67
2022/06/17 02:24:52;;;;;;;11.52;7.45;;;13.60;99.90;;;;;;5095495;28;20047;-67
2022/06/17 02:27:19;;;;;;;7.47;6.78;;;13.60;99.90;;;;;;5093649;28;20031;-67
2022/06/17 02:29:46;;;;;;;9.73;6.85;;;13.60;99.90;;;;;;5074923;28;20085;-67
2022/06/17 02:32:13;;;;;;;8.98;7.47;;;13.60;99.90;;;;;;5095732;28;20792;-67
2022/06/17 02:34:50;;;;;;;8.63;7.75;;;13.60;99.90;;;;;;5097211;28;20032;-67
2022/06/17 02:37:18;;;;;;;8.73;7.65;;;13.50;99.90;;;;;;5075187;28;20146;-67
2022/06/17 02:39:49;;;;;;;9.63;8.02;;;13.50;99.90;;;;;;5079133;28;20040;-67
2022/06/17 02:42:25;;;;;;;9.88;7.30;;;13.50;99.90;;;;;;5075373;28;20032;-67
2022/06/17 02:45:05;;;;;;;11.00;7.82;;;13.40;99.90;;;;;;5074683;28;20043;-67
2022/06/17 02:47:32;;;;;;;8.50;7.70;;;13.50;99.90;;;;;;5072398;28;20161;-67
2022/06/17 02:49:58;;;;;;;9.07;7.30;;;13.50;99.90;;;;;;5073112;28;20040;-67
2022/06/17 02:52:34;;;;;;;9.52;7.82;;;13.40;99.90;;;;;;5075693;28;20401;-67
2022/06/17 02:55:03;;;;;;;10.52;8.05;;;13.40;99.90;;;;;;5097696;28;20052;-67
2022/06/17 02:57:30;;;;;;;9.45;7.30;;;13.40;99.90;;;;;;5095945;28;20039;-67
2022/06/17 03:00:11;;;;;;;8.63;7.75;;;13.40;99.90;;;;;;5105494;27;20043;-67
2022/06/17 03:02:47;;;;;;;9.05;7.18;;;13.30;99.90;;;;;;5093991;28;20036;-67
2022/06/17 03:05:30;;;;;;;7.57;6.88;;;13.40;99.90;;;;;;5094333;28;20390;-67
2022/06/17 03:07:57;;;;;;;8.85;7.97;;;13.40;99.90;;;;;;5091017;28;20558;-67
2022/06/17 03:10:37;;;;;;;10.40;7.50;;;13.50;99.90;;;;;;5075491;28;20039;-67
2022/06/17 03:13:12;;;;;;;9.60;8.10;;;13.40;99.90;;;;;;5075403;28;20052;-67
2022/06/17 03:15:40;;;;;;;8.07;7.13;;;13.40;99.90;;;;;;5078543;28;20043;-67
2022/06/17 03:18:06;;;;;;;9.90;6.68;;;13.40;99.90;;;;;;5073510;28;20347;-67
2022/06/17 03:20:34;;;;;;;9.90;7.75;;;13.50;99.90;;;;;;5092232;28;20034;-67
2022/06/17 03:23:06;;;;;;;8.38;7.10;;;13.50;99.90;;;;;;5093326;28;20032;-67
2022/06/17 03:25:42;;;;;;;7.07;6.43;;;13.50;99.90;;;;;;5076920;28;20040;-67
2022/06/17 03:28:12;;;;;;;7.80;7.10;;;13.50;99.90;;;;;;5082907;28;20048;-67
2022/06/17 03:30:54;;;;;;;9.35;7.10;;;13.60;99.90;;;;;;5074368;28;20093;-67
2022/06/17 03:33:28;;;;;;;7.80;7.00;;;13.70;99.90;;;;;;5075943;28;20052;-67
2022/06/17 03:35:59;;;;;;;9.70;7.47;;;13.70;99.90;;;;;;5070927;28;20077;-67
2022/06/17 03:38:45;;;;;;;10.40;7.35;;;13.80;99.90;;;;;;5072284;28;20036;-67
2022/06/17 03:41:17;;;;;;;8.73;7.43;;;13.80;99.90;;;;;;5076441;28;20068;-67
2022/06/17 03:43:48;;;;;;;7.78;7.03;;;13.90;99.90;;;;;;5094034;28;20148;-67
2022/06/17 03:46:14;;;;;;;11.73;7.40;;;13.90;99.90;;;;;;5089536;28;20031;-67
2022/06/17 03:48:47;;;;;;;7.82;7.07;;;13.90;99.90;;;;;;5093252;28;20161;-67
2022/06/17 03:51:17;;;;;;;7.18;6.40;;;14.00;99.90;;;;;;5074172;28;20040;-67
2022/06/17 03:53:43;;;;;;;7.78;6.93;;;14.10;99.90;;;;;;5109652;27;20035;-67
2022/06/17 03:56:20;;;;;;;8.25;6.78;;;14.10;99.90;;;;;;5092321;28;20031;-67
2022/06/17 03:58:48;;;;;;;9.43;6.80;;;14.20;99.90;;;;;;5092497;28;20042;-67
2022/06/17 04:01:23;;;;;;;11.70;7.47;;;14.30;99.90;;;;;;5075438;28;20040;-67
2022/06/17 04:03:57;;;;;;;8.25;6.05;;;14.40;99.90;;;;;;5065821;28;20040;-67
2022/06/17 04:06:35;;;;;;;8.73;7.22;;;14.50;99.90;;;;;;5077467;28;20035;-67
2022/06/17 04:09:05;;;;;;;8.43;6.90;;;14.60;99.90;;;;;;5092429;28;20059;-67
2022/06/17 04:11:39;;;;;;;7.68;6.43;;;14.70;99.90;;;;;;5075019;28;20478;-67
2022/06/17 04:14:14;;;;;;;8.07;5.75;;;15.00;99.90;;;;;;5081197;28;20061;-67
2022/06/17 04:16:52;;;;;;;7.03;5.93;;;15.30;99.90;;;;;;5078720;28;20044;-67
2022/06/17 04:19:21;;;;;;;7.97;6.25;;;15.50;99.90;;;;;;5077921;28;20043;-67
2022/06/17 04:21:48;;;;;;;8.40;5.80;;;15.60;99.90;;;;;;5074326;28;20402;-67
2022/06/17 04:24:17;;;;;;;7.80;6.03;;;15.70;99.90;;;;;;5078969;28;20169;-67
2022/06/17 04:26:47;;;;;;;7.18;5.70;;;15.90;99.90;;;;;;5094644;28;20049;-67
2022/06/17 04:29:20;;;;;;;14.73;6.32;;;16.00;99.90;;;;;;5072859;28;20043;-67
2022/06/17 04:31:56;;;;;;;8.70;6.20;;;16.00;99.90;;;;;;5078626;28;20044;-67
2022/06/17 04:34:21;;;;;;;11.88;7.13;;;16.00;99.90;;;;;;5080411;28;20067;-67
2022/06/17 04:36:51;;;;;;;12.18;6.90;;;16.00;99.90;;;;;;5079311;28;20663;-67
2022/06/17 04:39:31;;;;;;;10.40;6.55;;;16.00;99.90;;;;;;5095098;28;20044;-67
2022/06/17 04:42:00;;;;;;;10.25;7.18;;;16.10;99.90;;;;;;5075355;28;20490;-67
2022/06/17 04:44:26;;;;;;;14.13;8.20;;;16.20;99.90;;;;;;5076723;28;20032;-67
2022/06/17 04:46:58;;;;;;;8.85;7.53;;;16.20;99.90;;;;;;5075840;28;20051;-67
2022/06/17 04:49:28;;;;;;;10.95;7.43;;;16.30;99.90;;;;;;5091548;28;20068;-67
2022/06/17 04:52:00;;;;;;;14.90;7.13;;;16.30;99.90;;;;;;5091926;28;20417;-67
2022/06/17 04:54:28;;;;;;;12.35;8.43;;;16.40;99.90;;;;;;5089676;28;20044;-67
2022/06/17 04:57:01;;;;;;;12.60;7.68;;;16.40;99.90;;;;;;5074063;28;20486;-67
2022/06/17 04:59:34;;;;;;;11.20;7.40;;;16.40;99.90;;;;;;5064638;28;20052;-67
2022/06/17 05:02:04;;;;;;;10.90;7.72;;;16.40;99.90;;;;;;5076551;28;20162;-68
2022/06/17 05:04:30;;;;;;;8.30;7.13;;;16.40;99.90;;;;;;5075966;28;20055;-67
2022/06/17 05:06:55;;;;;;;8.82;7.38;;;16.40;99.90;;;;;;5073235;28;20039;-67
2022/06/17 05:09:37;;;;;;;12.68;7.72;;;16.40;99.90;;;;;;5073103;28;20040;-67
2022/06/17 05:12:26;;;;;;;8.15;6.53;;;16.40;99.90;;;;;;5076602;28;20044;-67
2022/06/17 05:15:12;;;;;;;12.13;8.30;;;16.40;99.90;;;;;;5072671;28;20401;-67
2022/06/17 05:17:38;;;;;;;6.78;6.07;;;16.50;99.90;;;;;;5075250;28;20032;-67
2022/06/17 05:20:06;;;;;;;9.60;7.00;;;16.40;99.90;;;;;;5093737;28;21520;-67
2022/06/17 05:22:37;;;;;;;8.25;7.40;;;16.50;99.90;;;;;;5074197;28;20046;-67
2022/06/17 05:25:06;;;;;;;8.10;7.00;;;16.50;99.90;;;;;;5107045;27;20085;-67
2022/06/17 05:27:32;;;;;;;11.13;7.22;;;16.50;99.90;;;;;;5081338;28;20036;-67
2022/06/17 05:29:57;;;;;;;9.82;7.05;;;16.60;99.90;;;;;;5091484;28;20677;-67
2022/06/17 05:32:23;;;;;;;8.27;6.07;;;16.60;99.90;;;;;;5107824;27;20093;-67
2022/06/17 05:34:50;;;;;;;8.48;6.60;;;16.60;99.90;;;;;;5091564;28;20052;-67
2022/06/17 05:37:15;;;;;;;11.15;7.00;;;16.70;99.90;;;;;;5090885;28;20036;-68
2022/06/17 05:39:41;;;;;;;9.43;7.45;;;16.70;99.90;;;;;;5073467;28;20051;-67
2022/06/17 05:42:09;;;;;;;7.97;6.90;;;16.80;99.90;;;;;;5072696;28;20070;-67
2022/06/17 05:44:35;;;;;;;9.25;7.30;;;16.80;99.90;;;;;;5092831;28;20031;-67
2022/06/17 05:47:00;;;;;;;10.93;6.95;;;16.80;99.90;;;;;;5077446;28;20415;-67
2022/06/17 05:49:26;;;;;;;8.43;7.35;;;16.80;99.90;;;;;;5085873;28;20554;-67
2022/06/17 05:51:52;;;;;;;12.40;7.65;;;16.90;99.90;;;;;;5073626;28;20109;-67
2022/06/17 05:54:18;;;;;;;9.25;7.05;;;16.90;99.90;;;;;;5106658;27;20119;-67
2022/06/17 05:56:44;;;;;;;8.50;7.03;;;16.90;99.90;;;;;;5092581;28;20039;-67
2022/06/17 05:59:10;;;;;;;11.85;7.65;;;17.00;99.90;;;;;;5091529;28;20043;-67
2022/06/17 06:01:37;;;;;;;8.75;6.60;;;17.00;99.90;;;;;;5074776;28;20404;-67
2022/06/17 06:04:03;;;;;;;9.95;7.22;;;17.10;99.90;;;;;;5073215;28;20040;-68
2022/06/17 06:06:28;;;;;;;9.88;7.28;;;17.10;99.90;;;;;;5075830;28;20048;-67
2022/06/17 06:08:54;;;;;;;11.70;7.82;;;17.10;99.90;;;;;;5081966;28;20054;-67
2022/06/17 06:11:20;;;;;;;12.20;7.65;;;17.10;99.90;;;;;;5073965;28;20497;-67
2022/06/17 06:13:46;;;;;;;14.07;7.43;;;17.20;99.90;;;;;;5067323;28;20044;-68
2022/06/17 06:16:13;;;;;;;13.07;7.22;;;17.20;99.90;;;;;;5090152;28;20585;-67
2022/06/17 06:18:39;;;;;;;13.70;7.18;;;17.20;99.90;;;;;;5077605;28;20048;-66
2022/06/17 06:21:06;;;;;;;10.25;7.13;;;17.20;99.90;;;;;;5079793;28;20462;-66
2022/06/17 06:23:36;;;;;;;10.30;7.05;;;17.30;99.90;;;;;;5075427;28;20546;-67
2022/06/17 06:26:03;;;;;;;9.25;7.55;;;17.30;99.90;;;;;;5093852;28;20036;-67
2022/06/17 06:28:29;;;;;;;15.57;6.63;;;17.40;99.90;;;;;;5096385;28;20092;-67
2022/06/17 06:31:10;;;;;;;9.95;7.00;;;17.40;99.90;;;;;;5096533;28;20470;-67
2022/06/17 06:33:36;;;;;;;11.57;6.55;;;17.50;99.90;;;;;;5071802;28;20048;-66
2022/06/17 06:36:02;;;;;;;8.88;7.00;;;17.60;99.90;;;;;;5077760;28;20043;-67
2022/06/17 06:38:27;;;;;;;9.52;6.43;;;17.50;99.90;;;;;;5071757;28;20107;-67
2022/06/17 06:40:53;;;;;;;8.93;6.88;;;17.70;99.90;;;;;;5090322;28;20490;-67
2022/06/17 06:43:21;;;;;;;9.02;6.18;;;17.80;99.90;;;;;;5103928;27;20059;-66
2022/06/17 06:45:49;;;;;;;7.15;6.45;;;17.90;99.90;;;;;;5089129;28;20454;-67
2022/06/17 06:48:17;;;;;;;13.02;6.70;;;18.10;99.90;;;;;;5091029;28;20040;-65
2022/06/17 06:50:43;;;;;;;10.77;6.38;;;18.20;99.90;;;;;;5084459;28;20464;-66
2022/06/17 06:53:09;;;;;;;11.43;6.78;;;18.30;99.90;;;;;;5084320;28;20032;-65
2022/06/17 06:55:36;;;;;;;8.57;5.93;;;18.50;99.90;;;;;;5065668;28;20551;-66
2022/06/17 06:58:08;;;;;;;9.20;5.80;;;18.60;99.90;;;;;;5086254;28;20516;-66
2022/06/17 07:00:38;;;;;;;9.70;6.13;;;18.70;99.90;;;;;;5068313;28;20039;-67
2022/06/17 07:03:04;;;;;;;6.78;6.00;;;18.90;99.90;;;;;;5069491;28;20097;-66
2022/06/17 07:05:31;;;;;;;8.63;6.15;;;19.10;99.90;;;;;;5102079;27;20044;-66
2022/06/17 07:07:57;;;;;;;8.43;6.85;;;19.20;99.90;;;;;;5088673;28;20040;-66
2022/06/17 07:10:26;;;;;;;8.75;6.05;;;19.40;99.90;;;;;;5092070;28;20126;-66
2022/06/17 07:12:53;;;;;;;6.28;5.68;;;19.40;99.90;;;;;;5069530;28;20036;-66
2022/06/17 07:15:19;;;;;;;8.07;5.57;;;19.50;99.90;;;;;;5091957;28;20532;-66
2022/06/17 07:17:57;;;;;;;7.15;5.40;;;19.50;99.90;;;;;;5089992;28;20044;-66
2022/06/17 07:20:25;;;;;;;7.20;5.35;;;19.60;99.90;;;;;;5079193;28;20055;-66
2022/06/17 07:22:51;;;;;;;9.80;5.88;;;19.60;99.90;;;;;;5088905;28;20478;-66
2022/06/17 07:25:18;;;;;;;10.77;5.25;;;19.60;99.90;;;;;;5090112;28;20389;-66
2022/06/17 07:27:44;;;;;;;6.82;6.15;;;19.70;99.90;;;;;;5091870;28;20486;-66
2022/06/17 07:30:20;;;;;;;8.93;5.70;;;19.80;99.90;;;;;;5075608;28;20039;-66
2022/06/17 07:32:46;;;;;;;8.00;6.00;;;19.90;99.90;;;;;;5073930;28;20048;-66
2022/06/17 07:35:14;;;;;;;12.10;6.30;;;19.90;99.90;;;;;;5105994;27;20036;-66
2022/06/17 07:40:25;;;;;;;6.18;5.53;;;20.10;99.90;;;;;;5088231;28;20048;-66
2022/06/17 07:42:50;;;;;;;6.60;5.90;;;20.30;99.90;;;;;;5094387;28;20073;-66
2022/06/17 07:45:18;;;;;;;6.60;5.88;;;20.50;99.90;;;;;;5077685;28;20701;-66
2022/06/17 07:47:48;;;;;;;7.55;5.60;;;20.80;99.90;;;;;;5090699;28;20036;-66
2022/06/17 07:50:24;;;;;;;8.65;5.65;;;21.10;99.90;;;;;;5072826;28;20040;-66
2022/06/17 07:52:49;;;;;;;7.88;5.97;;;21.20;99.90;;;;;;5090527;28;20081;-66
2022/06/17 07:55:15;;;;;;;5.60;4.95;;;21.30;99.90;;;;;;5072305;28;20073;-66
2022/06/17 07:57:42;;;;;;;7.82;5.50;;;21.40;99.90;;;;;;5090517;28;21018;-66
2022/06/17 08:00:23;;;;;;;7.22;5.40;;;21.40;99.90;;;;;;5085722;28;20042;-66
2022/06/17 08:02:49;;;;;;;8.40;5.28;;;21.40;99.90;;;;;;5074749;28;20059;-66
2022/06/17 08:05:16;;;;;;;7.93;5.28;;;21.40;99.90;;;;;;5090507;28;20024;-66
2022/06/17 08:07:42;;;;;;;5.90;4.80;;;21.50;99.90;;;;;;5092845;28;20374;-66
2022/06/17 08:10:10;;;;;;;9.50;5.45;;;21.50;99.90;;;;;;5075878;28;20470;-66
2022/06/17 08:12:35;;;;;;;7.38;5.97;;;21.60;99.90;;;;;;5071883;28;20039;-66
2022/06/17 08:15:01;;;;;;;8.57;5.75;;;21.70;99.90;;;;;;5087414;28;20043;-66
2022/06/17 08:17:29;;;;;;;6.85;5.70;;;21.90;99.90;;;;;;5094231;28;20032;-66
2022/06/17 08:19:56;;;;;;;8.18;5.95;;;21.80;99.90;;;;;;5094060;28;20044;-66
2022/06/17 08:22:25;;;;;;;8.98;5.70;;;21.90;99.90;;;;;;5105839;28;20136;-65
2022/06/17 08:24:52;;;;;;;6.55;5.30;;;21.90;99.90;;;;;;5068500;28;20036;-66
2022/06/17 08:27:18;;;;;;;9.48;6.10;;;22.00;99.90;;;;;;5074685;28;20385;-66
2022/06/17 08:29:44;;;;;;;10.93;5.85;;;22.10;99.90;;;;;;5092955;28;20065;-66
2022/06/17 08:34:54;;;;;;;7.30;4.90;;;22.30;99.90;;;;;;5073445;28;20052;-66
2022/06/17 08:37:20;;;;;;;8.00;4.03;;;22.30;99.90;;;;;;5073750;28;20056;-66
2022/06/17 08:39:50;;;;;;;4.70;4.00;;;22.30;99.90;;;;;;5107559;28;20075;-66
2022/06/17 08:42:20;;;;;;;6.35;4.65;;;22.40;99.90;;;;;;5071800;28;20046;-66
2022/06/17 08:45:14;;;;;;;6.57;3.90;;;22.60;99.90;;;;;;5100562;28;20036;-66
2022/06/17 08:47:55;;;;;;;9.18;4.13;;;22.90;99.90;;;;;;5079908;28;20040;-66
2022/06/17 08:50:40;;;;;;;5.07;3.53;;;23.20;99.90;;;;;;5072592;28;20036;-66
2022/06/17 08:53:15;;;;;;;8.60;3.70;;;23.30;99.90;;;;;;5071472;28;20390;-66
2022/06/17 08:55:54;;;;;;;7.85;3.42;;;23.30;99.90;;;;;;5071773;28;20048;-66
2022/06/17 08:58:39;;;;;;;7.70;3.40;;;23.20;99.90;;;;;;5077236;28;20044;-66
2022/06/17 09:01:33;;;;;;;6.00;3.35;;;23.10;99.90;;;;;;5078039;28;20043;-66
2022/06/17 09:04:02;;;;;;;4.70;2.80;;;23.00;99.90;;;;;;5050828;28;20045;-66
2022/06/17 09:06:38;;;;;;;5.47;2.25;;;22.90;99.90;;;;;;5093121;28;20126;-66
2022/06/17 09:09:28;;;;;;;8.25;2.53;;;22.90;99.90;;;;;;5095088;28;20036;-66
2022/06/17 09:12:11;;;;;;;3.38;2.47;;;23.00;99.90;;;;;;5077983;28;20044;-66
2022/06/17 09:14:54;;;;;;;4.35;2.42;;;23.00;99.90;;;;;;5097855;28;20050;-66
2022/06/17 09:17:45;;;;;;;7.93;2.80;;;23.00;99.90;;;;;;5088685;28;20040;-66
2022/06/17 09:20:17;;;;;;;5.05;2.65;;;23.00;99.90;;;;;;5104876;27;20047;-66
2022/06/17 09:22:49;;;;;;;4.93;2.63;;;23.20;99.90;;;;;;5098880;28;20422;-66
2022/06/17 09:25:19;;;;;;;6.32;2.40;;;23.20;99.90;;;;;;5092454;28;20054;-66
2022/06/17 09:27:51;;;;;;;14.68;3.40;;;23.30;99.90;;;;;;5089736;28;20067;-66
2022/06/17 09:30:33;;;;;;;5.10;2.20;;;23.50;99.90;;;;;;5079911;28;20043;-66
2022/06/17 09:33:17;;;;;;;6.28;2.42;;;23.50;99.90;;;;;;5092748;28;20059;-66
2022/06/17 09:35:54;;;;;;;6.65;3.25;;;23.50;99.90;;;;;;5077598;28;20040;-66
2022/06/17 09:38:38;;;;;;;10.07;2.72;;;23.50;99.90;;;;;;5098371;28;20401;-66
2022/06/17 09:41:23;;;;;;;8.55;2.60;;;23.40;99.90;;;;;;5087324;28;20044;-66
2022/06/17 09:44:03;;;;;;;5.95;3.00;;;23.40;99.90;;;;;;5074108;28;20537;-66
2022/06/17 09:46:38;;;;;;;6.93;2.65;;;23.50;99.90;;;;;;5086886;28;20103;-66
2022/06/17 09:49:23;;;;;;;8.43;2.88;;;23.60;99.90;;;;;;5074570;28;20040;-66
2022/06/17 09:51:57;;;;;;;9.77;3.28;;;23.80;99.90;;;;;;5077195;28;20044;-66
2022/06/17 09:54:31;;;;;;;8.45;2.97;;;24.00;99.90;;;;;;5109037;27;20126;-66
2022/06/17 09:57:05;;;;;;;8.10;2.58;;;24.10;99.90;;;;;;5075548;28;20194;-66
2022/06/17 09:59:42;;;;;;;5.07;2.47;;;24.20;99.90;;;;;;5075189;28;20097;-66
2022/06/17 10:02:33;;;;;;;4.47;2.85;;;24.20;99.90;;;;;;5093824;28;20156;-67
2022/06/17 10:05:01;;;;;;;3.88;2.38;;;24.30;99.90;;;;;;5075147;28;20043;-68
2022/06/17 10:07:35;;;;;;;7.03;3.17;;;24.40;99.90;;;;;;5072792;28;20035;-68
2022/06/17 10:10:21;;;;;;;5.75;2.30;;;24.50;99.90;;;;;;5078127;28;20120;-68
2022/06/17 10:13:05;;;;;;;5.43;2.47;;;24.60;99.90;;;;;;5077809;28;20106;-67
2022/06/17 10:18:31;;;;;;;8.00;3.20;;;24.50;99.90;;;;;;5073924;28;20051;-68
2022/06/17 10:18:39;;;;;;;12.23;3.90;;;24.70;99.90;;;;;;5094297;28;20063;-68
2022/06/17 10:21:32;;;;;;;6.68;3.60;;;24.80;99.90;;;;;;5092508;28;20036;-68
2022/06/17 10:24:09;;;;;;;6.82;3.10;;;24.80;99.90;;;;;;5071613;28;20063;-68
2022/06/17 10:26:54;;;;;;;10.15;4.20;;;24.90;99.90;;;;;;5071169;28;20124;-68
2022/06/17 10:29:54;;;;;;;6.22;2.70;;;24.90;99.90;;;;;;5071406;28;20052;-68
2022/06/17 10:32:21;;;;;;;6.32;3.53;;;25.00;99.90;;;;;;5091014;28;20616;-68
2022/06/17 10:34:50;;;;;;;6.78;2.90;;;25.00;99.90;;;;;;5092680;28;20409;-68
2022/06/17 10:37:16;;;;;;;7.40;3.38;;;25.00;99.90;;;;;;5094022;28;20122;-68
2022/06/17 10:39:43;;;;;;;10.98;2.90;;;25.00;99.90;;;;;;5092383;28;20546;-68
2022/06/17 10:42:15;;;;;;;6.78;3.25;;;25.00;99.90;;;;;;5067657;28;20658;-68
2022/06/17 10:44:45;;;;;;;7.00;2.90;;;25.10;99.90;;;;;;5105657;27;20048;-67
2022/06/17 10:47:41;;;;;;;8.50;3.65;;;25.00;99.90;;;;;;5088216;28;20425;-68
2022/06/17 10:50:24;;;;;;;7.73;3.40;;;25.00;99.90;;;;;;5100432;27;20139;-68
2022/06/17 10:53:15;;;;;;;10.32;3.05;;;25.10;99.90;;;;;;5070709;28;20345;-68
2022/06/17 10:55:47;;;;;;;16.60;2.90;;;25.10;99.90;;;;;;5072001;28;20048;-68
2022/06/17 10:58:20;;;;;;;5.65;3.05;;;25.30;99.90;;;;;;5068624;28;20051;-68
2022/06/17 11:01:10;;;;;;;3.92;2.58;;;25.40;99.90;;;;;;5091302;28;20052;-68
2022/06/17 11:03:38;;;;;;;16.83;3.22;;;25.50;99.90;;;;;;5070794;28;20051;-68
2022/06/17 11:06:13;;;;;;;4.50;2.63;;;25.60;99.90;;;;;;5076132;28;20058;-68
2022/06/17 11:08:56;;;;;;;6.05;2.38;;;25.80;99.90;;;;;;5072949;28;20040;-68
2022/06/17 11:14:46;;;;;;;14.25;3.83;;;25.90;99.90;;;;;;5074959;28;20123;-68
2022/06/17 11:17:31;;;;;;;18.55;4.82;;;25.80;99.90;;;;;;5086744;27;20056;-68
2022/06/17 11:20:02;;;;;;;9.00;3.63;;;25.70;99.90;;;;;;5072395;28;20088;-68
2022/06/17 11:22:35;;;;;;;6.30;3.58;;;25.70;99.90;;;;;;5092879;28;20066;-68
2022/06/17 11:25:19;;;;;;;10.25;3.00;;;25.70;99.90;;;;;;5090176;28;20060;-69
2022/06/17 11:27:53;;;;;;;5.85;2.47;;;25.80;99.90;;;;;;5073496;28;20060;-68
2022/06/17 11:30:34;;;;;;;11.00;3.13;;;25.80;99.90;;;;;;5089562;28;20094;-68
2022/06/17 11:33:01;;;;;;;5.10;2.08;;;25.90;99.90;;;;;;5071678;28;20067;-68
2022/06/17 11:35:34;;;;;;;8.43;2.53;;;26.20;99.90;;;;;;5070352;28;20040;-68
2022/06/17 11:38:03;;;;;;;3.97;2.90;;;26.30;99.90;;;;;;5089305;28;20044;-68
2022/06/17 11:40:35;;;;;;;9.30;3.65;;;26.40;99.90;;;;;;5089012;28;20470;-68
2022/06/17 11:43:04;;;;;;;5.40;3.03;;;26.40;99.90;;;;;;5070218;28;20501;-68
2022/06/17 11:45:36;;;;;;;9.38;3.15;;;26.50;99.00;;;;;;5069539;28;20486;-69
2022/06/17 11:48:05;;;;;;;4.55;2.58;;;26.40;99.70;;;;;;5085563;28;20032;-66
2022/06/17 11:50:34;;;;;;;22.70;4.32;;;26.40;99.80;;;;;;5102644;27;20051;-66
2022/06/17 11:53:08;;;;;;;18.15;5.07;;;26.50;99.80;;;;;;5102640;27;20047;-66
2022/06/17 11:55:42;;;;;;;9.80;2.87;;;26.60;99.70;;;;;;5084970;28;21408;-66
2022/06/17 11:58:09;;;;;;;8.35;2.97;;;26.80;99.60;;;;;;5070696;28;20059;-66
2022/06/17 12:00:48;;;;;;;5.78;2.42;;;26.80;99.20;;;;;;5085739;28;20052;-65
2022/06/17 12:03:20;;;;;;;7.38;3.10;;;26.70;98.30;;;;;;5092309;28;20036;-65
2022/06/17 12:05:58;;;;;;;4.05;2.58;;;26.70;98.60;;;;;;5100863;28;20056;-66
2022/06/17 12:08:42;;;;;;;24.77;5.15;;;26.80;98.40;;;;;;5109086;28;20075;-65
2022/06/17 12:11:14;;;;;;;10.45;3.38;;;27.10;97.90;;;;;;5070459;28;20143;-64
2022/06/17 12:13:44;;;;;;;6.05;2.50;;;27.10;97.60;;;;;;5088571;28;20048;-65
2022/06/17 12:16:19;;;;;;;5.63;3.15;;;27.20;98.90;;;;;;5069554;28;20126;-66
2022/06/17 12:18:52;;;;;;;5.82;2.72;;;27.40;97.80;;;;;;5089374;28;20044;-65
2022/06/17 12:22:18;;;;;;;5.18;2.53;;;27.50;98.00;;;;;;5101478;28;20122;-65
2022/06/17 12:24:47;;;;;;;8.68;2.55;;;27.60;96.90;;;;;;4990703;28;20520;-65
2022/06/17 12:27:22;;;;;;;4.85;2.47;;;27.60;97.40;;;;;;5053801;28;20523;-65
2022/06/17 12:30:28;;;;;;;4.38;2.47;;;27.70;97.30;;;;;;5090359;28;20047;-65
2022/06/17 12:33:10;;;;;;;5.57;2.35;;;27.80;95.90;;;;;;5090797;28;20732;-65
2022/06/17 12:35:46;;;;;;;5.95;3.03;;;27.70;96.60;;;;;;5071973;28;20039;-65
2022/06/17 12:38:17;;;;;;;8.30;2.45;;;27.70;96.90;;;;;;5113408;27;20132;-65
2022/06/17 12:40:45;;;;;;;11.40;3.13;;;27.80;97.50;;;;;;5073599;28;20031;-65
2022/06/17 12:43:30;;;;;;;4.20;2.28;;;27.90;97.20;;;;;;5093358;28;20063;-65
2022/06/17 12:46:09;;;;;;;4.05;2.00;;;28.10;97.10;;;;;;5078375;28;20044;-66
2022/06/17 12:48:44;;;;;;;5.18;2.17;;;28.10;96.40;;;;;;5072694;28;20058;-65
2022/06/17 12:54:35;;;;;;;2.85;1.70;;;28.10;96.50;;;;;;5106937;27;19916;-65
2022/06/17 12:57:12;;;;;;;6.57;2.60;;;28.00;95.60;;;;;;5089924;28;20036;-65
2022/06/17 12:59:53;;;;;;;2.35;1.90;;;28.10;96.70;;;;;;5072916;28;20083;-65
2022/06/17 13:02:40;;;;;;;4.57;2.20;;;28.10;96.30;;;;;;5091767;28;20518;-64
2022/06/17 13:05:34;;;;;;;6.38;2.50;;;28.10;96.00;;;;;;5094975;28;20369;-64
2022/06/17 13:08:12;;;;;;;7.85;2.67;;;28.10;96.20;;;;;;5077095;28;20123;-65
2022/06/17 13:11:02;;;;;;;4.60;2.05;;;28.20;95.50;;;;;;5071014;28;20036;-64
2022/06/17 13:13:46;;;;;;;4.15;2.13;;;28.20;95.60;;;;;;5075737;28;20048;-65
2022/06/17 13:16:26;;;;;;;4.32;2.25;;;28.20;95.60;;;;;;5076521;28;20039;-65
2022/06/17 13:18:55;;;;;;;5.53;2.05;;;28.20;96.00;;;;;;5094900;28;20063;-64
2022/06/17 13:21:43;;;;;;;8.75;2.80;;;28.10;95.50;;;;;;5105058;27;20101;-65
2022/06/17 13:24:31;;;;;;;8.95;2.50;;;28.00;95.80;;;;;;5088887;28;20062;-65
2022/06/17 13:26:56;;;;;;;7.78;2.53;;;28.00;95.30;;;;;;5072555;28;20055;-65
2022/06/17 13:29:51;;;;;;;28.00;4.30;;;27.90;96.50;;;;;;5088272;28;20059;-64
2022/06/17 13:32:30;;;;;;;5.70;2.53;;;27.90;96.10;;;;;;5094149;28;20044;-65